createdAt,value
2018-02-10T00:01:34.390Z,16.60
2018-02-10T00:04:35.822Z,15.77
2018-02-10T00:07:37.202Z,17.67
2018-02-10T00:10:38.613Z,16.73
2018-02-10T00:13:40.012Z,15.70
2018-02-10T00:16:41.380Z,15.57
2018-02-10T00:19:42.759Z,17.10
2018-02-10T00:22:47.153Z,17.63
2018-02-10T00:25:48.612Z,17.10
2018-02-10T00:28:49.966Z,15.73
2018-02-10T00:31:51.370Z,16.17
2018-02-10T00:34:52.775Z,15.90
2018-02-10T00:37:54.896Z,15.60
2018-02-10T00:40:56.319Z,15.93
2018-02-10T00:43:57.689Z,17.67
2018-02-10T00:46:59.086Z,19.13
2018-02-10T00:50:00.543Z,16.70
2018-02-10T00:53:01.883Z,15.63
2018-02-10T00:56:03.310Z,19.47
2018-02-10T00:59:04.674Z,17.70
2018-02-10T01:02:06.047Z,14.17
2018-02-10T01:05:07.442Z,18.43
2018-02-10T01:08:08.760Z,17.50
2018-02-10T01:11:10.164Z,16.93
2018-02-10T01:14:12.312Z,17.43
2018-02-10T01:17:13.675Z,17.37
2018-02-10T01:20:15.060Z,16.30
2018-02-10T01:23:16.447Z,18.47
2018-02-10T01:26:17.787Z,19.13
2018-02-10T01:29:19.878Z,16.90
2018-02-10T01:32:21.950Z,18.33
2018-02-10T01:35:23.277Z,18.97
2018-02-10T01:38:24.621Z,18.10
2018-02-10T01:41:26.261Z,16.40
2018-02-10T01:44:27.693Z,17.53
2018-02-10T01:47:29.267Z,17.90
2018-02-10T01:50:31.684Z,18.20
2018-02-10T01:53:33.379Z,19.70
2018-02-10T01:56:34.723Z,19.03
2018-02-10T01:59:36.049Z,17.50
2018-02-10T02:02:38.145Z,15.83
2018-02-10T02:05:39.502Z,15.33
2018-02-10T02:08:40.876Z,16.90
2018-02-10T02:11:42.227Z,18.70
2018-02-10T02:14:43.580Z,17.50
2018-02-10T02:17:45.725Z,18.83
2018-02-10T02:20:47.120Z,18.27
2018-02-10T02:23:48.511Z,20.77
2018-02-10T02:26:49.876Z,18.30
2018-02-10T02:29:51.251Z,15.77
2018-02-10T02:32:52.866Z,19.17
2018-02-10T02:35:54.245Z,18.83
2018-02-10T02:38:55.812Z,18.77
2018-02-10T02:41:57.202Z,19.53
2018-02-10T02:44:58.570Z,21.43
2018-02-10T02:48:00.031Z,17.67
2018-02-10T02:51:02.127Z,20.57
2018-02-10T02:54:04.201Z,19.13
2018-02-10T02:57:05.596Z,21.80
2018-02-10T03:00:07.743Z,20.07
2018-02-10T03:03:09.104Z,19.43
2018-02-10T03:06:10.499Z,22.10
2018-02-10T03:09:11.823Z,18.70
2018-02-10T03:15:21.169Z,20.33
2018-02-10T03:18:23.218Z,20.57
2018-02-10T03:21:24.527Z,22.30
2018-02-10T03:24:25.859Z,21.53
2018-02-10T03:27:27.204Z,21.47
2018-02-10T03:30:29.297Z,21.20
2018-02-10T03:33:31.438Z,20.53
2018-02-10T03:36:32.786Z,19.67
2018-02-10T03:39:34.142Z,19.70
2018-02-10T03:42:35.490Z,21.40
2018-02-10T03:45:36.832Z,20.80
2018-02-10T03:48:38.893Z,21.23
2018-02-10T03:51:40.233Z,20.60
2018-02-10T03:54:42.586Z,21.33
2018-02-10T03:57:43.930Z,20.23
2018-02-10T04:00:45.232Z,13.97
2018-02-10T04:03:46.580Z,21.40
2018-02-10T04:06:47.903Z,22.23
2018-02-10T04:09:49.233Z,21.80
2018-02-10T04:12:50.610Z,21.40
2018-02-10T04:15:51.915Z,23.10
2018-02-10T04:18:53.240Z,23.83
2018-02-10T04:21:55.295Z,24.53
2018-02-10T04:24:56.603Z,25.07
2018-02-10T04:27:58.064Z,24.63
2018-02-10T04:30:59.378Z,24.30
2018-02-10T04:34:01.496Z,24.13
2018-02-10T04:37:02.876Z,25.10
2018-02-10T04:40:04.245Z,24.27
2018-02-10T04:43:06.317Z,25.73
2018-02-10T04:46:07.760Z,25.07
2018-02-10T04:49:09.162Z,26.10
2018-02-10T04:52:10.507Z,25.40
2018-02-10T04:55:11.837Z,26.47
2018-02-10T04:58:13.214Z,25.60
2018-02-10T05:01:14.569Z,26.93
2018-02-10T05:04:15.903Z,18.87
2018-02-10T05:07:17.963Z,25.87
2018-02-10T05:10:19.300Z,26.73
2018-02-10T05:13:20.684Z,29.70
2018-02-10T05:16:22.072Z,28.30
2018-02-10T05:19:23.421Z,30.37
2018-02-10T05:22:24.754Z,27.83
2018-02-10T05:25:26.043Z,30.47
2018-02-10T05:28:28.119Z,28.70
2018-02-10T05:31:29.440Z,30.20
2018-02-10T05:34:30.758Z,31.77
2018-02-10T05:37:32.097Z,32.23
2018-02-10T05:40:33.421Z,31.50
2018-02-10T05:43:34.758Z,30.70
2018-02-10T05:46:36.074Z,32.00
2018-02-10T05:49:37.480Z,33.10
2018-02-10T05:52:38.795Z,31.37
2018-02-10T05:55:40.133Z,28.53
2018-02-10T05:58:41.460Z,30.87
2018-02-10T06:01:42.744Z,28.67
2018-02-10T06:04:44.220Z,28.00
2018-02-10T06:07:45.516Z,28.40
2018-02-10T06:10:46.867Z,31.33
2018-02-10T06:13:48.180Z,29.93
2018-02-10T06:16:49.673Z,30.77
2018-02-10T06:19:51.192Z,27.60
2018-02-10T06:22:53.343Z,31.10
2018-02-10T06:25:54.631Z,28.77
2018-02-10T06:28:56.034Z,27.43
2018-02-10T06:31:57.373Z,32.17
2018-02-10T06:34:58.742Z,28.60
2018-02-10T06:38:00.075Z,28.87
2018-02-10T06:41:01.427Z,31.17
2018-02-10T06:44:02.712Z,27.80
2018-02-10T06:47:04.025Z,26.80
2018-02-10T06:50:05.365Z,28.47
2018-02-10T06:53:06.712Z,27.23
2018-02-10T06:56:08.766Z,26.37
2018-02-10T06:59:10.137Z,25.73
2018-02-10T07:02:11.622Z,26.03
2018-02-10T07:05:12.924Z,27.20
2018-02-10T07:08:14.270Z,26.17
2018-02-10T07:11:15.602Z,26.60
2018-02-10T07:14:16.910Z,24.70
2018-02-10T07:17:18.189Z,23.70
2018-02-10T07:20:19.495Z,26.50
2018-02-10T07:23:20.932Z,25.50
2018-02-10T07:26:22.274Z,21.27
2018-02-10T07:29:23.620Z,25.27
2018-02-10T07:32:24.928Z,24.23
2018-02-10T07:35:26.208Z,23.70
2018-02-10T07:38:27.545Z,23.80
2018-02-10T07:41:28.890Z,22.30
2018-02-10T07:44:30.224Z,23.23
2018-02-10T07:47:31.543Z,25.30
2018-02-10T07:50:32.863Z,22.10
2018-02-10T07:53:34.140Z,25.70
2018-02-10T07:56:35.470Z,24.97
2018-02-10T07:59:36.794Z,19.43
2018-02-10T08:02:38.869Z,22.13
2018-02-10T08:05:40.173Z,24.90
2018-02-10T08:08:42.260Z,24.60
2018-02-10T08:11:44.328Z,24.90
2018-02-10T08:14:45.619Z,25.43
2018-02-10T08:17:46.935Z,26.63
2018-02-10T08:20:48.250Z,20.67
2018-02-10T08:23:49.660Z,26.00
2018-02-10T08:26:50.981Z,25.10
2018-02-10T08:29:52.287Z,23.83
2018-02-10T08:32:53.631Z,23.93
2018-02-10T08:35:55.795Z,25.77
2018-02-10T08:38:57.182Z,23.90
2018-02-10T08:41:58.501Z,26.67
2018-02-10T08:44:59.814Z,25.83
2018-02-10T08:48:01.134Z,26.47
2018-02-10T08:51:03.187Z,26.03
2018-02-10T08:54:04.530Z,24.47
2018-02-10T08:57:05.833Z,23.23
2018-02-10T09:00:07.154Z,21.33
2018-02-10T09:03:08.734Z,21.80
2018-02-10T09:06:10.055Z,23.67
2018-02-10T09:09:12.096Z,20.00
2018-02-10T09:12:13.380Z,23.97
2018-02-10T09:15:14.704Z,20.03
2018-02-10T09:18:16.735Z,22.00
2018-02-10T09:21:18.066Z,21.60
2018-02-10T09:24:19.433Z,15.37
2018-02-10T09:27:20.713Z,21.47
2018-02-10T09:30:22.004Z,17.90
2018-02-10T09:33:23.297Z,20.17
2018-02-10T09:36:24.661Z,18.20
2018-02-10T09:39:25.998Z,17.33
2018-02-10T09:42:27.376Z,58.07
2018-02-10T09:45:28.704Z,30.93
2018-02-10T09:48:30.075Z,19.50
2018-02-10T09:51:31.394Z,17.00
2018-02-10T09:54:32.820Z,16.50
2018-02-10T09:57:34.199Z,17.57
2018-02-10T10:00:35.535Z,18.10
2018-02-10T10:03:36.918Z,17.63
2018-02-10T10:06:38.274Z,17.60
2018-02-10T10:09:40.428Z,15.57
2018-02-10T10:12:41.748Z,15.80
2018-02-10T10:15:43.039Z,16.17
2018-02-10T10:18:45.076Z,17.00
2018-02-10T10:21:46.423Z,15.87
2018-02-10T10:24:48.511Z,15.80
2018-02-10T10:27:49.844Z,16.60
2018-02-10T10:30:51.194Z,15.93
2018-02-10T10:33:52.536Z,16.50
2018-02-10T10:36:53.905Z,14.60
2018-02-10T10:39:55.696Z,16.03
2018-02-10T10:42:57.065Z,16.10
2018-02-10T10:45:58.421Z,15.60
2018-02-10T10:48:59.728Z,17.80
2018-02-10T10:52:01.037Z,15.80
2018-02-10T10:55:02.334Z,15.57
2018-02-10T10:58:04.414Z,14.33
2018-02-10T11:01:05.723Z,15.40
2018-02-10T11:04:07.035Z,13.60
2018-02-10T11:07:08.360Z,16.00
2018-02-10T11:10:10.432Z,16.57
2018-02-10T11:13:11.695Z,17.83
2018-02-10T11:16:13.147Z,16.37
2018-02-10T11:19:14.431Z,17.20
2018-02-10T11:22:15.815Z,37.00
2018-02-10T11:25:17.041Z,26.53
2018-02-10T11:28:18.409Z,18.87
2018-02-10T11:31:19.770Z,18.73
2018-02-10T11:34:21.082Z,18.07
2018-02-10T11:37:22.647Z,17.03
2018-02-10T11:40:23.987Z,16.70
2018-02-10T11:43:25.309Z,18.40
2018-02-10T11:46:26.642Z,15.90
2018-02-10T11:49:27.995Z,18.10
2018-02-10T11:52:29.341Z,16.80
2018-02-10T11:55:30.709Z,19.10
2018-02-10T11:58:32.031Z,16.47
2018-02-10T12:01:33.459Z,17.77
2018-02-10T12:04:34.877Z,20.00
2018-02-10T12:07:36.271Z,20.63
2018-02-10T12:10:37.641Z,20.53
2018-02-10T12:13:39.029Z,24.73
2018-02-10T12:16:40.373Z,19.10
2018-02-10T12:19:41.686Z,19.30
2018-02-10T12:22:43.041Z,22.00
2018-02-10T12:25:44.378Z,19.57
2018-02-10T12:28:46.492Z,19.30
2018-02-10T12:31:48.609Z,18.13
2018-02-10T12:34:49.936Z,18.50
2018-02-10T12:37:51.313Z,17.57
2018-02-10T12:40:52.733Z,14.57
2018-02-10T12:43:54.851Z,20.43
2018-02-10T12:46:56.206Z,18.13
2018-02-10T12:49:57.594Z,18.80
2018-02-10T12:52:58.967Z,16.60
2018-02-10T12:56:00.323Z,16.27
2018-02-10T12:59:01.679Z,14.50
2018-02-10T13:02:03.058Z,12.93
2018-02-10T13:05:04.439Z,16.63
2018-02-10T13:08:05.867Z,12.23
2018-02-10T13:11:07.266Z,12.90
2018-02-10T13:14:08.630Z,11.67
2018-02-10T13:17:09.993Z,11.73
2018-02-10T13:20:11.348Z,12.17
2018-02-10T13:23:12.717Z,11.63
2018-02-10T13:26:14.096Z,9.13
2018-02-10T13:29:15.494Z,11.37
2018-02-10T13:32:16.818Z,11.90
2018-02-10T13:35:18.201Z,12.07
2018-02-10T13:38:19.593Z,10.57
2018-02-10T13:41:20.965Z,12.70
2018-02-10T13:44:22.350Z,11.97
2018-02-10T13:47:23.713Z,10.33
2018-02-10T13:50:25.068Z,13.83
2018-02-10T13:53:26.426Z,11.13
2018-02-10T13:56:27.769Z,11.13
2018-02-10T13:59:29.907Z,11.90
2018-02-10T14:02:31.259Z,12.53
2018-02-10T14:05:32.615Z,13.33
2018-02-10T14:08:33.959Z,12.50
2018-02-10T14:11:35.325Z,12.93
2018-02-10T14:14:38.294Z,13.13
2018-02-10T14:17:39.635Z,13.83
2018-02-10T14:20:40.987Z,12.60
2018-02-10T14:23:42.434Z,13.20
2018-02-10T14:26:43.818Z,13.43
2018-02-10T14:29:45.209Z,15.13
2018-02-10T14:32:46.569Z,14.93
2018-02-10T14:35:47.948Z,15.33
2018-02-10T14:38:49.294Z,15.10
2018-02-10T14:41:51.394Z,29.80
2018-02-10T14:44:53.494Z,15.50
2018-02-10T14:47:54.857Z,15.83
2018-02-10T14:50:56.923Z,15.40
2018-02-10T14:53:58.325Z,16.30
2018-02-10T14:56:59.704Z,16.57
2018-02-10T15:00:01.064Z,17.23
2018-02-10T15:03:02.412Z,15.57
2018-02-10T15:06:03.739Z,14.93
2018-02-10T15:09:05.050Z,15.70
2018-02-10T15:12:07.172Z,14.33
2018-02-10T15:15:08.497Z,16.53
2018-02-10T15:18:09.844Z,14.07
2018-02-10T15:21:18.054Z,16.50
2018-02-10T15:24:20.132Z,16.00
2018-02-10T15:27:21.481Z,14.57
2018-02-10T15:30:41.201Z,15.87
2018-02-10T15:34:00.914Z,14.23
2018-02-10T15:37:02.321Z,14.97
2018-02-10T15:40:03.678Z,15.13
2018-02-10T15:43:05.026Z,16.10
2018-02-10T15:46:06.510Z,16.40
2018-02-10T15:49:07.967Z,16.43
2018-02-10T15:52:10.033Z,18.20
2018-02-10T15:55:11.379Z,17.60
2018-02-10T15:58:12.719Z,17.10
2018-02-10T16:01:14.058Z,18.87
2018-02-10T16:04:15.398Z,19.13
2018-02-10T16:07:17.517Z,20.40
2018-02-10T16:10:18.894Z,19.13
2018-02-10T16:13:20.264Z,20.97
2018-02-10T16:16:29.425Z,20.87
2018-02-10T16:19:31.526Z,19.03
2018-02-10T16:22:33.729Z,19.30
2018-02-10T16:25:35.841Z,18.17
2018-02-10T16:28:37.225Z,16.57
2018-02-10T16:31:38.734Z,17.60
2018-02-10T16:34:40.169Z,16.63
2018-02-10T16:37:42.272Z,15.17
2018-02-10T16:40:44.462Z,18.07
2018-02-10T16:43:46.555Z,16.27
2018-02-10T16:46:47.893Z,16.17
2018-02-10T16:49:49.265Z,14.83
2018-02-10T16:52:50.605Z,15.50
2018-02-10T16:55:52.695Z,15.57
2018-02-10T16:58:54.189Z,14.57
2018-02-10T17:01:56.282Z,15.80
2018-02-10T17:08:06.273Z,16.10
2018-02-10T17:11:07.689Z,115.80
2018-02-10T17:14:09.041Z,19.50
2018-02-10T17:17:10.362Z,17.67
2018-02-10T17:20:12.436Z,17.97
2018-02-10T17:23:13.740Z,19.73
2018-02-10T17:26:15.794Z,18.90
2018-02-10T17:29:17.134Z,29.70
2018-02-10T17:35:26.429Z,23.00
2018-02-10T17:38:28.532Z,22.73
2018-02-10T17:41:30.598Z,23.17
2018-02-10T17:44:31.966Z,25.10
2018-02-10T17:47:33.392Z,26.10
2018-02-10T17:50:34.878Z,25.87
2018-02-10T17:53:36.305Z,26.30
2018-02-10T17:56:37.672Z,26.30
2018-02-10T17:59:39.082Z,24.80
2018-02-10T18:02:41.785Z,26.50
2018-02-10T18:05:43.451Z,22.43
2018-02-10T18:08:45.098Z,21.40
2018-02-10T18:11:46.395Z,23.30
2018-02-10T18:14:47.716Z,20.70
2018-02-10T18:17:49.012Z,22.00
2018-02-10T18:20:50.354Z,23.80
2018-02-10T18:23:52.425Z,19.00
2018-02-10T18:26:53.790Z,19.03
2018-02-10T18:29:55.116Z,17.90
2018-02-10T18:32:57.203Z,18.87
2018-02-10T18:35:59.291Z,15.90
2018-02-10T18:39:01.408Z,16.80
2018-02-10T18:42:03.567Z,15.27
2018-02-10T18:45:04.876Z,16.73
2018-02-10T18:48:06.924Z,14.93
2018-02-10T18:51:08.294Z,14.83
2018-02-10T18:54:10.428Z,12.50
2018-02-10T18:57:18.688Z,13.70
2018-02-10T19:00:20.769Z,13.53
2018-02-10T19:03:22.067Z,13.10
2018-02-10T19:06:24.164Z,14.10
2018-02-10T19:09:26.348Z,15.57
2018-02-10T19:12:27.640Z,13.57
2018-02-10T19:15:29.756Z,12.63
2018-02-10T19:18:31.129Z,13.10
2018-02-10T19:21:33.213Z,12.20
2018-02-10T19:24:34.574Z,12.43
2018-02-10T19:27:35.912Z,12.50
2018-02-10T19:30:37.247Z,12.57
2018-02-10T19:33:38.563Z,12.53
2018-02-10T19:36:39.860Z,13.37
2018-02-10T19:39:41.178Z,11.20
2018-02-10T19:42:42.502Z,11.77
2018-02-10T19:45:43.814Z,13.40
2018-02-10T19:48:45.203Z,22.87
2018-02-10T19:51:46.497Z,11.90
2018-02-10T19:54:47.821Z,12.87
2018-02-10T19:57:49.127Z,11.70
2018-02-10T20:00:50.560Z,12.13
2018-02-10T20:03:51.886Z,10.83
2018-02-10T20:06:53.228Z,10.93
2018-02-10T20:09:55.014Z,9.57
2018-02-10T20:12:56.647Z,10.13
2018-02-10T20:15:58.019Z,11.40
2018-02-10T20:18:59.327Z,9.60
2018-02-10T20:22:00.857Z,9.50
2018-02-10T20:25:02.196Z,9.00
2018-02-10T20:28:03.709Z,8.43
2018-02-10T20:31:05.180Z,9.80
2018-02-10T20:34:06.627Z,7.97
2018-02-10T20:37:07.976Z,7.47
2018-02-10T20:40:09.374Z,8.80
2018-02-10T20:43:10.726Z,8.57
2018-02-10T20:46:12.802Z,7.73
2018-02-10T20:49:14.130Z,6.67
2018-02-10T20:52:16.171Z,7.83
2018-02-10T20:55:17.479Z,7.50
2018-02-10T20:58:18.827Z,7.03
2018-02-10T21:01:20.191Z,6.87
2018-02-10T21:04:21.674Z,7.73
2018-02-10T21:07:22.972Z,7.60
2018-02-10T21:10:24.323Z,7.17
2018-02-10T21:13:25.733Z,7.23
2018-02-10T21:16:27.036Z,7.00
2018-02-10T21:19:28.444Z,6.20
2018-02-10T21:22:29.739Z,4.50
2018-02-10T21:25:31.074Z,5.50
2018-02-10T21:28:32.375Z,4.50
2018-02-10T21:31:33.705Z,5.70
2018-02-10T21:34:35.725Z,6.27
2018-02-10T21:37:37.011Z,4.57
2018-02-10T21:40:38.330Z,4.90
2018-02-10T21:43:39.856Z,5.00
2018-02-10T21:46:41.185Z,4.80
2018-02-10T21:49:42.473Z,3.90
2018-02-10T21:52:43.808Z,5.53
2018-02-10T21:55:45.107Z,4.67
2018-02-10T21:58:46.528Z,4.13
2018-02-10T22:01:48.602Z,5.33
2018-02-10T22:04:49.938Z,4.63
2018-02-10T22:07:51.326Z,4.60
2018-02-10T22:10:53.104Z,5.07
2018-02-10T22:13:54.472Z,4.57
2018-02-10T22:16:55.824Z,4.87
2018-02-10T22:19:57.193Z,5.27
2018-02-10T22:22:58.570Z,5.30
2018-02-10T22:25:59.910Z,5.23
2018-02-10T22:29:01.215Z,4.83
2018-02-10T22:32:02.558Z,4.63
2018-02-10T22:35:03.930Z,4.37
2018-02-10T22:38:06.035Z,4.80
2018-02-10T22:41:08.104Z,4.20
2018-02-10T22:44:09.472Z,4.53
2018-02-10T22:47:11.155Z,4.17
2018-02-10T22:50:12.629Z,4.30
2018-02-10T22:53:13.968Z,3.60
2018-02-10T22:56:16.070Z,5.10
2018-02-10T22:59:17.379Z,4.30
2018-02-10T23:02:18.731Z,4.70
2018-02-10T23:05:20.091Z,4.47
2018-02-10T23:08:22.156Z,4.50
2018-02-10T23:11:23.591Z,3.20
2018-02-10T23:14:24.929Z,4.50
2018-02-10T23:17:26.239Z,4.17
2018-02-10T23:20:28.358Z,4.53
2018-02-10T23:23:29.721Z,4.40
2018-02-10T23:26:31.848Z,3.50
2018-02-10T23:29:33.459Z,3.83
2018-02-10T23:32:35.128Z,4.90
2018-02-10T23:35:37.634Z,4.60
2018-02-10T23:38:39.010Z,3.70
2018-02-10T23:41:40.366Z,4.00
2018-02-10T23:44:42.462Z,4.30
2018-02-10T23:47:43.910Z,3.87
2018-02-10T23:50:45.239Z,3.83
2018-02-10T23:53:47.293Z,3.40
2018-02-10T23:56:48.633Z,3.57
2018-02-10T23:59:50.006Z,3.57
